Healing, United Kingdom
Current Conditions -  °F | °C
As of 8:50 PM on Thursday 20 Nov 2014 (Local Time) from EGNJ Reporting Station
Moderate Fog Moderate Fog  
Wind Chill: 45°   Ceiling: Unl
Heat Index: 45°   Visibility: 0.5mi
Dew Point: 45°   Wind: 2mph
Humidity: 100%   Direction: 190°S
Pressure: 30.27"   Gusts: NA
Location:  53.58°N, 0.16°W
Report Text: EGNJ 202050Z 19002KT 0800 R20/1200 FG SCT006 07/07 Q1025
Loading
Personal Weather Stations






























Interactive Weather Map New forecast layout! Learn more

10-Day Weather Forecast

Advertisements
Track Severe Weather on mobile